Time;durP1;ratioP1;P1;durP2;ratioP2;P2;SDS_P1;SDS_P2;PMS_P1;PMS_P2;Temp;Humidity;BMP_temperature;BMP_pressure;BME280_temperature;BME280_humidity;BME280_pressure;Samples;Min_cycle;Max_cycle;Signal;HPM_P1;HPM_P2
2020/12/20 00:00:08;;;;;;;20.02;13.45;;;7.70;99.90;;;;;;5114424;28;20039;-66
2020/12/20 00:02:34;;;;;;;20.85;14.20;;;7.70;99.90;;;;;;5115084;28;20019;-67
2020/12/20 00:04:59;;;;;;;27.05;14.00;;;7.70;99.90;;;;;;5114750;28;20466;-66
2020/12/20 00:07:25;;;;;;;23.93;14.10;;;7.70;99.90;;;;;;5114290;28;20027;-66
2020/12/20 00:09:51;;;;;;;22.57;14.27;;;7.80;99.90;;;;;;5095703;28;20023;-66
2020/12/20 00:12:16;;;;;;;19.07;13.10;;;7.80;99.90;;;;;;5114996;28;20046;-66
2020/12/20 00:14:42;;;;;;;21.83;14.63;;;7.80;99.90;;;;;;5114227;28;20392;-67
2020/12/20 00:17:10;;;;;;;24.35;15.25;;;7.80;99.90;;;;;;5114192;28;20020;-67
2020/12/20 00:19:36;;;;;;;26.85;16.20;;;7.80;99.90;;;;;;5114454;28;20056;-67
2020/12/20 00:22:05;;;;;;;31.05;18.98;;;7.70;99.90;;;;;;5114191;28;20487;-67
2020/12/20 00:24:31;;;;;;;30.27;18.77;;;7.60;99.90;;;;;;5114142;28;20095;-67
2020/12/20 00:26:57;;;;;;;33.50;20.50;;;7.60;99.90;;;;;;5095670;28;20062;-67
2020/12/20 00:29:23;;;;;;;29.98;20.55;;;7.60;99.90;;;;;;5113891;28;20096;-66
2020/12/20 00:31:49;;;;;;;29.98;18.52;;;7.50;99.90;;;;;;5114208;28;20103;-67
2020/12/20 00:34:15;;;;;;;26.50;16.13;;;7.60;99.90;;;;;;5113970;28;20063;-66
2020/12/20 00:36:45;;;;;;;28.37;15.47;;;7.60;99.90;;;;;;5114298;28;20031;-66
2020/12/20 00:39:11;;;;;;;26.23;15.27;;;7.60;99.90;;;;;;5096277;28;20539;-66
2020/12/20 00:41:37;;;;;;;21.35;14.93;;;7.70;99.90;;;;;;5114741;28;20044;-66
2020/12/20 00:44:03;;;;;;;25.27;15.10;;;7.60;99.90;;;;;;5115062;28;20357;-66
2020/12/20 00:46:28;;;;;;;22.00;15.63;;;7.60;99.90;;;;;;5114032;28;20042;-66
2020/12/20 00:48:54;;;;;;;20.73;14.30;;;7.60;99.90;;;;;;5113904;28;20460;-66
2020/12/20 00:51:20;;;;;;;26.57;16.33;;;7.60;99.90;;;;;;5113693;28;20357;-66
2020/12/20 00:53:45;;;;;;;25.20;15.40;;;7.60;99.90;;;;;;5113556;28;20022;-66
2020/12/20 00:56:14;;;;;;;24.53;16.10;;;7.60;99.90;;;;;;5113951;28;20076;-66
2020/12/20 00:58:41;;;;;;;26.45;16.20;;;7.60;99.90;;;;;;5113384;28;20096;-66
2020/12/20 01:01:09;;;;;;;26.92;15.20;;;7.60;99.90;;;;;;5095011;28;20459;-66
2020/12/20 01:03:35;;;;;;;36.60;20.25;;;7.60;99.90;;;;;;5113743;28;20049;-66
2020/12/20 01:06:01;;;;;;;31.50;19.00;;;7.70;99.90;;;;;;5113199;28;20047;-66
2020/12/20 01:08:27;;;;;;;24.53;15.20;;;7.70;99.90;;;;;;5095132;28;20024;-66
2020/12/20 01:10:53;;;;;;;22.80;14.82;;;7.70;99.90;;;;;;5113359;28;20019;-66
2020/12/20 01:13:19;;;;;;;24.55;15.32;;;7.70;99.90;;;;;;5113731;28;20110;-66
2020/12/20 01:15:44;;;;;;;22.60;14.77;;;7.70;99.90;;;;;;5113711;28;20103;-66
2020/12/20 01:18:10;;;;;;;19.27;14.07;;;7.70;99.90;;;;;;5113711;28;20414;-66
2020/12/20 01:20:35;;;;;;;21.40;13.33;;;7.70;99.90;;;;;;5113418;28;20020;-66
2020/12/20 01:23:01;;;;;;;22.67;14.00;;;7.60;99.90;;;;;;5113627;28;20059;-65
2020/12/20 01:25:27;;;;;;;20.50;13.43;;;7.60;99.90;;;;;;5095337;28;20028;-66
2020/12/20 01:27:52;;;;;;;21.60;13.77;;;7.50;99.90;;;;;;5113862;28;20027;-66
2020/12/20 01:30:18;;;;;;;19.50;13.00;;;7.50;99.90;;;;;;5094823;28;20057;-66
2020/12/20 01:32:44;;;;;;;20.00;13.83;;;7.40;99.90;;;;;;5114101;28;20028;-67
2020/12/20 01:35:10;;;;;;;21.07;13.97;;;7.40;99.90;;;;;;5099509;28;20023;-66
2020/12/20 01:37:36;;;;;;;21.05;13.80;;;7.40;99.90;;;;;;5117500;28;20028;-66
2020/12/20 01:40:03;;;;;;;;;;;7.30;99.90;;;;;;5118081;28;20031;-65
2020/12/20 01:42:28;;;;;;;25.67;14.18;;;7.30;99.90;;;;;;5118135;28;19911;-66
2020/12/20 01:44:54;;;;;;;24.40;14.87;;;7.30;99.90;;;;;;5117406;28;20024;-66
2020/12/20 01:47:21;;;;;;;23.73;15.27;;;7.30;99.90;;;;;;5117301;28;20049;-66
2020/12/20 01:49:46;;;;;;;21.10;14.48;;;7.30;99.90;;;;;;5117362;28;20020;-66
2020/12/20 01:52:14;;;;;;;21.63;14.47;;;7.20;99.90;;;;;;5117517;28;20057;-66
2020/12/20 01:54:44;;;;;;;23.77;14.18;;;7.10;99.90;;;;;;5116786;28;20296;-66
2020/12/20 01:57:09;;;;;;;26.05;14.70;;;7.20;99.90;;;;;;5116837;28;20019;-66
2020/12/20 01:59:36;;;;;;;24.17;15.10;;;7.20;99.90;;;;;;5116775;28;20069;-66
2020/12/20 02:02:01;;;;;;;20.58;13.32;;;7.20;99.90;;;;;;5098663;28;20403;-66
2020/12/20 02:04:27;;;;;;;21.83;13.07;;;7.20;99.90;;;;;;5098530;28;20027;-66
2020/12/20 02:06:53;;;;;;;16.55;11.73;;;7.30;99.90;;;;;;5116771;28;20023;-66
2020/12/20 02:09:19;;;;;;;18.47;12.13;;;7.20;99.90;;;;;;5116865;28;20040;-66
2020/12/20 02:11:45;;;;;;;19.67;12.50;;;7.30;99.90;;;;;;5116913;28;20062;-66
2020/12/20 02:14:11;;;;;;;19.05;12.70;;;7.20;99.90;;;;;;5116847;28;20066;-66
2020/12/20 02:16:37;;;;;;;19.80;12.67;;;7.10;99.90;;;;;;5116344;28;20035;-65
2020/12/20 02:19:03;;;;;;;18.07;12.20;;;7.00;99.90;;;;;;5116384;28;20024;-66
2020/12/20 02:21:28;;;;;;;22.25;12.13;;;7.00;99.90;;;;;;5116510;28;20336;-66
2020/12/20 02:23:54;;;;;;;18.20;11.63;;;6.90;99.90;;;;;;5117030;28;20020;-66
2020/12/20 02:26:22;;;;;;;19.10;12.17;;;7.00;99.90;;;;;;5116449;28;20490;-66
2020/12/20 02:28:49;;;;;;;17.70;12.50;;;7.00;99.90;;;;;;5116702;28;20020;-66
2020/12/20 02:31:15;;;;;;;21.85;12.73;;;7.00;99.90;;;;;;5116497;28;20024;-66
2020/12/20 02:33:40;;;;;;;17.70;12.60;;;7.10;99.90;;;;;;5116201;28;20028;-66
2020/12/20 02:36:06;;;;;;;20.13;12.70;;;7.10;99.90;;;;;;5097867;28;20084;-66
2020/12/20 02:38:32;;;;;;;21.53;12.70;;;7.10;99.90;;;;;;5116382;28;20056;-66
2020/12/20 02:40:58;;;;;;;17.37;12.27;;;7.10;99.90;;;;;;5115967;28;20078;-66
2020/12/20 02:43:25;;;;;;;18.83;12.88;;;7.10;99.90;;;;;;5115721;28;20591;-66
2020/12/20 02:45:50;;;;;;;18.20;12.80;;;7.20;99.90;;;;;;5115886;28;20028;-66
2020/12/20 02:48:16;;;;;;;16.75;11.80;;;7.20;99.90;;;;;;5116034;28;20031;-67
2020/12/20 02:50:42;;;;;;;17.00;12.40;;;7.20;99.90;;;;;;5116023;28;20031;-67
2020/12/20 02:53:07;;;;;;;17.37;12.37;;;7.20;99.90;;;;;;5115872;28;20392;-67
2020/12/20 02:55:33;;;;;;;19.43;12.80;;;7.20;99.90;;;;;;5116549;28;20476;-66
2020/12/20 02:57:59;;;;;;;18.92;12.60;;;7.20;99.90;;;;;;5115700;28;20028;-66
2020/12/20 03:00:25;;;;;;;22.23;11.77;;;7.20;99.90;;;;;;5115562;28;20069;-66
2020/12/20 03:02:50;;;;;;;16.33;12.10;;;7.30;99.90;;;;;;5115905;28;20024;-66
2020/12/20 03:05:17;;;;;;;17.97;12.93;;;7.30;99.90;;;;;;5097356;28;20152;-66
2020/12/20 03:07:44;;;;;;;18.27;12.20;;;7.30;99.90;;;;;;5115984;28;20023;-66
2020/12/20 03:10:10;;;;;;;;;;;7.30;99.90;;;;;;5115796;28;20027;-66
2020/12/20 03:12:35;;;;;;;16.92;11.70;;;7.30;99.90;;;;;;5115519;28;20356;-66
2020/12/20 03:15:01;;;;;;;17.53;12.57;;;7.20;99.90;;;;;;5115581;28;20098;-66
2020/12/20 03:17:26;;;;;;;18.27;12.13;;;7.20;99.90;;;;;;5115062;28;20031;-66
2020/12/20 03:19:52;;;;;;;17.97;12.10;;;7.20;99.90;;;;;;5115125;28;20039;-66
2020/12/20 03:22:18;;;;;;;20.50;11.90;;;7.20;99.90;;;;;;5115288;28;20023;-66
2020/12/20 03:24:43;;;;;;;14.93;11.10;;;7.20;99.90;;;;;;5115656;28;20332;-66
2020/12/20 03:27:09;;;;;;;16.77;11.77;;;7.20;99.90;;;;;;5115160;28;20047;-67
2020/12/20 03:29:35;;;;;;;13.90;11.00;;;7.20;99.90;;;;;;5096617;28;20026;-66
2020/12/20 03:32:01;;;;;;;18.00;11.87;;;7.40;99.90;;;;;;5115434;28;20264;-66
2020/12/20 03:34:27;;;;;;;16.27;11.27;;;7.20;99.90;;;;;;5115723;28;20479;-66
2020/12/20 03:36:52;;;;;;;17.87;11.37;;;7.10;99.90;;;;;;5116501;28;20027;-66
2020/12/20 03:39:18;;;;;;;18.13;12.93;;;7.10;99.90;;;;;;5096267;28;20028;-66
2020/12/20 03:41:44;;;;;;;15.00;11.23;;;7.00;99.90;;;;;;5114914;28;20277;-65
2020/12/20 03:44:10;;;;;;;17.73;11.80;;;7.10;99.90;;;;;;5115035;28;20028;-65
2020/12/20 03:46:36;;;;;;;18.20;12.73;;;7.20;99.90;;;;;;5114818;28;20130;-66
2020/12/20 03:49:01;;;;;;;17.47;11.90;;;7.20;99.90;;;;;;5114911;28;20410;-66
2020/12/20 03:51:27;;;;;;;20.07;12.90;;;7.20;99.90;;;;;;5114668;28;20015;-66
2020/12/20 03:53:53;;;;;;;18.47;11.77;;;7.20;99.90;;;;;;5114689;28;20035;-66
2020/12/20 03:56:19;;;;;;;17.73;12.37;;;7.40;99.90;;;;;;5114535;28;20047;-65
2020/12/20 03:58:44;;;;;;;18.65;12.30;;;7.50;99.90;;;;;;5114661;28;20443;-66
2020/12/20 04:01:10;;;;;;;18.63;13.43;;;7.40;99.90;;;;;;5114316;28;20058;-66
2020/12/20 04:03:36;;;;;;;18.03;12.87;;;7.40;99.90;;;;;;5114705;28;20027;-66
2020/12/20 04:06:01;;;;;;;23.07;14.60;;;7.40;99.90;;;;;;5096289;28;20484;-66
2020/12/20 04:08:27;;;;;;;17.07;12.60;;;7.40;99.90;;;;;;5114519;28;20044;-67
2020/12/20 04:10:53;;;;;;;19.40;13.10;;;7.50;99.90;;;;;;5114626;28;20019;-67
2020/12/20 04:13:18;;;;;;;19.20;13.27;;;7.40;99.90;;;;;;5114644;28;20372;-66
2020/12/20 04:15:44;;;;;;;20.47;14.20;;;7.40;99.90;;;;;;5114926;28;20149;-66
2020/12/20 04:18:09;;;;;;;18.43;12.93;;;7.40;99.90;;;;;;5114577;28;20103;-65
2020/12/20 04:20:35;;;;;;;19.73;14.47;;;7.40;99.90;;;;;;5114539;28;20027;-67
2020/12/20 04:23:01;;;;;;;21.57;15.10;;;7.40;99.90;;;;;;5114351;28;20443;-66
2020/12/20 04:25:27;;;;;;;21.75;14.57;;;7.40;99.90;;;;;;5114236;28;20023;-66
2020/12/20 04:27:52;;;;;;;22.53;14.23;;;7.40;99.90;;;;;;5114161;28;20081;-66
2020/12/20 04:30:18;;;;;;;20.73;14.50;;;7.40;99.90;;;;;;5113997;28;20046;-66
2020/12/20 04:32:43;;;;;;;19.27;14.20;;;7.40;99.90;;;;;;5114042;28;20027;-66
2020/12/20 04:35:09;;;;;;;21.30;13.90;;;7.40;99.90;;;;;;5114042;28;20024;-66
2020/12/20 04:37:35;;;;;;;22.33;14.43;;;7.40;99.90;;;;;;5113956;28;20055;-66
2020/12/20 04:40:02;;;;;;;;;;;7.50;99.90;;;;;;5114219;28;20028;-66
2020/12/20 04:42:29;;;;;;;20.20;14.10;;;7.50;99.90;;;;;;5114026;28;20424;-66
2020/12/20 04:44:55;;;;;;;24.30;14.93;;;7.50;99.90;;;;;;5114695;28;20250;-66
2020/12/20 04:47:22;;;;;;;18.27;14.67;;;7.50;99.90;;;;;;5113618;28;20102;-66
2020/12/20 04:49:49;;;;;;;18.55;14.20;;;7.50;99.90;;;;;;5113448;28;20028;-66
2020/12/20 04:52:17;;;;;;;20.83;13.90;;;7.50;99.90;;;;;;5113682;28;20055;-67
2020/12/20 04:54:45;;;;;;;19.70;13.68;;;7.50;99.90;;;;;;5113499;28;20027;-66
2020/12/20 04:57:14;;;;;;;17.98;13.45;;;7.50;99.90;;;;;;5113653;28;20035;-66
2020/12/20 04:59:40;;;;;;;21.88;13.32;;;7.50;99.90;;;;;;5113387;28;20024;-66
2020/12/20 05:02:05;;;;;;;17.50;12.93;;;7.50;99.90;;;;;;5113446;28;20390;-66
2020/12/20 05:04:34;;;;;;;17.70;12.63;;;7.40;99.90;;;;;;5113559;28;20047;-66
2020/12/20 05:06:59;;;;;;;18.02;13.13;;;7.40;99.90;;;;;;5113265;28;20015;-66
2020/12/20 05:09:25;;;;;;;19.23;13.17;;;7.40;99.90;;;;;;5113445;28;20437;-67
2020/12/20 05:11:51;;;;;;;21.67;13.10;;;7.40;99.90;;;;;;5113333;28;20075;-66
2020/12/20 05:14:16;;;;;;;19.50;12.53;;;7.40;99.90;;;;;;5113532;28;20019;-66
2020/12/20 05:16:42;;;;;;;18.93;12.83;;;7.40;99.90;;;;;;5113483;28;20024;-66
2020/12/20 05:19:15;;;;;;;19.60;13.63;;;7.40;99.90;;;;;;5094866;28;20281;-66
2020/12/20 05:21:41;;;;;;;17.88;11.95;;;7.40;99.90;;;;;;5114194;28;20031;-66
2020/12/20 05:24:27;;;;;;;19.10;12.43;;;7.40;99.90;;;;;;5113164;28;20027;-66
2020/12/20 05:26:53;;;;;;;16.77;12.23;;;7.40;99.90;;;;;;5113413;28;20098;-66
2020/12/20 05:29:25;;;;;;;18.27;13.47;;;7.40;99.90;;;;;;5113258;28;20074;-66
2020/12/20 05:31:51;;;;;;;18.80;13.23;;;7.40;99.90;;;;;;5113596;28;20368;-66
2020/12/20 05:34:20;;;;;;;17.23;12.68;;;7.40;99.90;;;;;;5113112;28;20019;-66
2020/12/20 05:36:46;;;;;;;18.73;13.13;;;7.40;99.90;;;;;;5113118;28;20043;-66
2020/12/20 05:39:14;;;;;;;20.75;13.27;;;7.40;99.90;;;;;;5094854;28;20090;-68
2020/12/20 05:41:42;;;;;;;20.00;14.15;;;7.40;99.90;;;;;;5094424;28;20509;-65
2020/12/20 05:44:24;;;;;;;19.83;13.43;;;7.40;99.90;;;;;;5113298;28;20185;-65
2020/12/20 05:46:50;;;;;;;15.77;12.20;;;7.50;99.90;;;;;;5113045;28;20026;-66
2020/12/20 05:49:23;;;;;;;20.08;13.93;;;7.50;99.90;;;;;;5112978;28;20475;-66
2020/12/20 05:52:04;;;;;;;17.98;12.95;;;7.50;99.90;;;;;;5112857;28;20049;-66
2020/12/20 05:54:32;;;;;;;19.83;14.43;;;7.50;99.90;;;;;;5112937;28;20042;-66
2020/12/20 05:57:09;;;;;;;21.85;14.63;;;7.50;99.90;;;;;;5112798;28;20043;-67
2020/12/20 05:59:35;;;;;;;;;;;7.50;99.90;;;;;;5113246;28;20106;-67
2020/12/20 06:02:04;;;;;;;22.90;14.38;;;7.60;99.90;;;;;;5113109;28;19935;-66
2020/12/20 06:04:31;;;;;;;19.67;13.77;;;7.50;99.90;;;;;;5113802;28;20359;-67
2020/12/20 06:06:58;;;;;;;22.63;14.07;;;7.90;99.90;;;;;;5113168;28;20048;-67
2020/12/20 06:09:27;;;;;;;;;;;8.00;99.90;;;;;;5113608;28;20024;-67
2020/12/20 06:11:54;;;;;;;19.48;13.57;;;8.00;99.90;;;;;;5094678;28;19954;-67
2020/12/20 06:14:25;;;;;;;20.75;14.70;;;8.00;99.90;;;;;;5094622;28;20110;-67
2020/12/20 06:17:12;;;;;;;22.17;14.38;;;7.90;99.90;;;;;;5113045;28;20016;-67
2020/12/20 06:20:05;;;;;;;21.33;14.60;;;7.70;99.90;;;;;;5114834;28;20034;-66
2020/12/20 06:22:31;;;;;;;18.90;14.07;;;7.60;99.90;;;;;;5112876;28;20050;-65
2020/12/20 06:24:59;;;;;;;19.20;13.23;;;7.60;99.90;;;;;;5117384;28;20024;-66
2020/12/20 06:27:27;;;;;;;21.20;14.27;;;7.50;99.90;;;;;;5098145;28;20152;-65
2020/12/20 06:29:55;;;;;;;21.90;14.23;;;7.40;99.90;;;;;;5116347;28;20027;-65
2020/12/20 06:32:39;;;;;;;21.05;13.75;;;7.40;99.90;;;;;;5117031;28;20092;-65
2020/12/20 06:35:25;;;;;;;20.88;14.38;;;7.40;99.90;;;;;;5117175;28;20051;-65
2020/12/20 06:37:52;;;;;;;18.85;13.60;;;7.40;99.90;;;;;;5116479;28;20107;-65
2020/12/20 06:40:30;;;;;;;22.83;14.18;;;7.40;99.90;;;;;;5117147;28;20028;-65
2020/12/20 06:42:59;;;;;;;22.45;14.70;;;7.40;99.90;;;;;;5116945;28;20028;-65
2020/12/20 06:45:27;;;;;;;20.52;14.32;;;7.50;99.90;;;;;;5116101;28;20020;-66
2020/12/20 06:48:00;;;;;;;24.15;16.08;;;7.50;99.90;;;;;;5116763;28;20051;-66
2020/12/20 06:50:44;;;;;;;17.85;13.93;;;7.50;99.90;;;;;;5116354;28;20034;-66
2020/12/20 06:53:16;;;;;;;19.30;14.20;;;7.50;99.90;;;;;;5116326;28;20492;-67
2020/12/20 06:55:43;;;;;;;18.90;13.95;;;7.50;99.90;;;;;;5117210;28;20020;-66
2020/12/20 06:58:19;;;;;;;18.83;13.80;;;7.50;99.90;;;;;;5097855;28;20028;-67
2020/12/20 07:00:57;;;;;;;20.17;13.95;;;7.50;99.90;;;;;;5097761;28;20019;-67
2020/12/20 07:03:30;;;;;;;17.67;13.27;;;7.50;99.90;;;;;;5116006;28;20015;-67
2020/12/20 07:05:57;;;;;;;22.88;13.48;;;7.50;99.90;;;;;;5097976;28;20475;-67
2020/12/20 07:08:29;;;;;;;;;;;7.50;99.90;;;;;;5116238;28;20038;-67
2020/12/20 07:10:57;;;;;;;20.35;13.80;;;7.50;99.90;;;;;;5116045;28;19920;-66
2020/12/20 07:13:35;;;;;;;21.02;13.77;;;7.50;99.90;;;;;;5116058;28;20418;-66
2020/12/20 07:16:08;;;;;;;23.63;14.38;;;7.70;99.90;;;;;;5116113;28;20031;-65
2020/12/20 07:18:40;;;;;;;19.73;13.40;;;7.70;99.90;;;;;;5115906;28;20383;-66
2020/12/20 07:21:11;;;;;;;20.52;14.32;;;7.70;99.90;;;;;;5116074;28;20031;-66
2020/12/20 07:23:41;;;;;;;20.45;14.15;;;7.60;99.90;;;;;;5098080;28;20020;-66
2020/12/20 07:26:07;;;;;;;21.20;14.75;;;7.60;99.90;;;;;;5116269;28;20019;-67
2020/12/20 07:28:33;;;;;;;17.45;12.40;;;7.60;99.90;;;;;;5097298;28;20023;-67
2020/12/20 07:30:59;;;;;;;19.40;13.82;;;7.70;99.90;;;;;;5114811;28;20039;-67
2020/12/20 07:33:25;;;;;;;21.10;13.90;;;7.80;99.90;;;;;;5097764;28;20380;-67
2020/12/20 07:35:50;;;;;;;22.57;14.90;;;7.70;99.90;;;;;;5115842;28;20027;-67
2020/12/20 07:38:17;;;;;;;22.77;15.83;;;7.70;99.90;;;;;;5097510;28;20141;-68
2020/12/20 07:40:43;;;;;;;;;;;7.80;99.90;;;;;;5116091;28;20036;-67
2020/12/20 07:43:09;;;;;;;18.63;12.73;;;7.80;99.90;;;;;;5097522;28;20283;-66
2020/12/20 07:45:34;;;;;;;19.52;14.05;;;7.80;99.90;;;;;;5116059;28;20016;-67
2020/12/20 07:48:00;;;;;;;20.53;14.27;;;7.70;99.90;;;;;;5115996;28;20035;-67
2020/12/20 07:50:26;;;;;;;24.23;14.60;;;7.60;99.90;;;;;;5097123;28;20038;-66
2020/12/20 07:52:52;;;;;;;21.27;13.80;;;7.60;99.90;;;;;;5097124;28;20258;-67
2020/12/20 07:55:18;;;;;;;24.85;13.95;;;7.60;99.90;;;;;;5115365;28;20031;-67
2020/12/20 07:57:46;;;;;;;25.20;15.52;;;7.60;99.90;;;;;;5114918;28;20027;-67
2020/12/20 08:00:12;;;;;;;23.88;14.95;;;7.70;99.90;;;;;;5114630;28;20365;-66
2020/12/20 08:02:38;;;;;;;21.40;15.55;;;7.90;99.90;;;;;;5114837;28;20024;-66
2020/12/20 08:05:09;;;;;;;25.55;17.48;;;7.90;99.90;;;;;;5096858;28;20024;-67
2020/12/20 08:07:35;;;;;;;41.47;23.98;;;8.00;99.90;;;;;;5096725;28;20185;-67
2020/12/20 08:10:01;;;;;;;23.98;15.65;;;7.80;99.90;;;;;;5115643;28;20055;-66
2020/12/20 08:12:27;;;;;;;25.75;16.55;;;7.70;99.90;;;;;;5115012;28;20496;-67
2020/12/20 08:15:07;;;;;;;24.05;14.93;;;7.70;99.90;;;;;;5096732;28;20391;-67
2020/12/20 08:17:35;;;;;;;22.65;14.68;;;7.70;99.90;;;;;;5115149;28;20057;-67
2020/12/20 08:20:06;;;;;;;19.38;14.55;;;7.70;99.90;;;;;;5115560;28;20031;-66
2020/12/20 08:22:33;;;;;;;20.17;14.38;;;7.70;99.90;;;;;;5096498;28;20388;-66
2020/12/20 08:25:09;;;;;;;20.27;14.43;;;7.70;99.90;;;;;;5115284;28;20031;-67
2020/12/20 08:27:44;;;;;;;19.33;13.57;;;8.00;99.90;;;;;;5096856;28;20115;-68
2020/12/20 08:30:11;;;;;;;20.67;14.10;;;8.00;99.90;;;;;;5097537;28;20084;-71
2020/12/20 08:32:40;;;;;;;18.70;13.88;;;8.00;99.90;;;;;;5115286;28;20124;-69
2020/12/20 08:35:15;;;;;;;18.10;13.23;;;8.00;99.90;;;;;;5114896;28;20027;-69
2020/12/20 08:37:42;;;;;;;21.48;14.07;;;8.00;99.90;;;;;;5116151;28;20030;-69
2020/12/20 08:40:13;;;;;;;21.38;14.32;;;8.00;99.90;;;;;;5114741;28;20024;-70
2020/12/20 08:42:39;;;;;;;21.25;14.50;;;8.10;99.90;;;;;;5096972;28;20024;-69
2020/12/20 08:45:15;;;;;;;18.35;13.30;;;8.10;99.90;;;;;;5097159;28;20053;-68
2020/12/20 08:47:43;;;;;;;19.67;13.27;;;8.10;99.90;;;;;;5096445;28;20032;-69
2020/12/20 08:50:09;;;;;;;18.55;14.10;;;8.20;99.90;;;;;;5096340;28;20024;-69
2020/12/20 08:52:35;;;;;;;21.20;13.93;;;8.30;99.90;;;;;;5115268;28;20089;-71
2020/12/20 08:55:03;;;;;;;21.58;13.35;;;8.30;99.90;;;;;;5096734;28;20027;-71
2020/12/20 08:57:33;;;;;;;18.95;12.60;;;8.40;99.90;;;;;;5114210;28;20032;-70
2020/12/20 09:00:17;;;;;;;18.83;12.27;;;8.50;99.90;;;;;;5114604;28;20023;-69
2020/12/20 09:02:43;;;;;;;17.52;13.30;;;8.40;99.90;;;;;;5114476;28;20015;-69
2020/12/20 09:05:13;;;;;;;16.20;12.32;;;8.40;99.90;;;;;;5114281;28;20020;-69
2020/12/20 09:07:49;;;;;;;19.30;12.90;;;8.50;99.90;;;;;;5096399;28;20024;-69
2020/12/20 09:10:18;;;;;;;17.98;11.93;;;8.50;99.90;;;;;;5113772;28;20475;-68
2020/12/20 09:12:52;;;;;;;23.45;12.18;;;8.50;99.90;;;;;;5113669;28;20023;-69
2020/12/20 09:15:19;;;;;;;22.42;12.50;;;8.50;99.90;;;;;;5113817;28;20039;-69
2020/12/20 09:17:47;;;;;;;18.92;13.15;;;8.50;99.90;;;;;;5095721;28;20437;-70
2020/12/20 09:20:25;;;;;;;19.98;12.93;;;8.50;99.90;;;;;;5114395;28;20023;-70
2020/12/20 09:23:01;;;;;;;20.55;12.48;;;8.50;99.90;;;;;;5096315;28;20149;-70
2020/12/20 09:25:41;;;;;;;17.05;12.02;;;8.50;99.90;;;;;;5114431;28;20038;-69
2020/12/20 09:28:10;;;;;;;17.50;12.80;;;8.60;99.90;;;;;;5096206;28;20433;-69
2020/12/20 09:30:50;;;;;;;21.00;13.75;;;8.60;99.90;;;;;;5114689;28;20069;-68
2020/12/20 09:33:16;;;;;;;17.40;12.35;;;8.70;99.90;;;;;;5114883;28;20053;-68
2020/12/20 09:35:58;;;;;;;18.07;12.97;;;8.70;99.90;;;;;;5115684;28;20023;-68
2020/12/20 09:38:26;;;;;;;18.35;12.75;;;8.70;99.90;;;;;;5097619;28;20016;-70
2020/12/20 09:41:04;;;;;;;18.45;12.55;;;8.70;99.90;;;;;;5097975;28;20096;-70
2020/12/20 09:43:31;;;;;;;20.98;12.45;;;8.70;99.90;;;;;;5116604;28;20384;-69
2020/12/20 09:45:57;;;;;;;18.08;12.38;;;8.60;99.90;;;;;;5116579;28;20028;-68
2020/12/20 09:48:23;;;;;;;17.63;12.27;;;8.80;99.90;;;;;;5115432;28;20032;-70
2020/12/20 09:50:49;;;;;;;18.60;12.90;;;8.80;99.90;;;;;;5096542;28;20030;-70
2020/12/20 09:53:15;;;;;;;19.10;13.57;;;8.90;99.90;;;;;;5097130;28;20476;-70
2020/12/20 09:55:43;;;;;;;22.13;15.47;;;8.90;99.90;;;;;;5119627;28;20076;-69
2020/12/20 09:58:13;;;;;;;18.15;12.48;;;8.70;99.90;;;;;;5118227;28;20050;-68
2020/12/20 10:00:40;;;;;;;19.33;12.85;;;8.70;99.90;;;;;;5118081;28;20433;-69
2020/12/20 10:03:06;;;;;;;20.38;13.05;;;8.70;99.90;;;;;;5099563;28;20051;-70
2020/12/20 10:05:32;;;;;;;18.00;12.70;;;8.70;99.90;;;;;;5099072;28;20540;-69
2020/12/20 10:07:58;;;;;;;19.13;13.77;;;8.80;99.90;;;;;;5118725;28;20031;-70
2020/12/20 10:10:23;;;;;;;20.57;14.57;;;8.80;99.90;;;;;;5099057;28;20452;-68
2020/12/20 10:12:49;;;;;;;19.23;12.75;;;8.90;99.90;;;;;;5099503;28;20031;-70
2020/12/20 10:15:15;;;;;;;19.10;14.13;;;8.90;99.90;;;;;;5099452;28;20115;-69
2020/12/20 10:17:40;;;;;;;19.60;13.90;;;8.90;99.90;;;;;;5099088;28;20034;-69
2020/12/20 10:20:06;;;;;;;19.50;13.83;;;8.90;99.90;;;;;;5099187;28;20269;-72
2020/12/20 10:22:32;;;;;;;20.43;14.07;;;8.90;99.90;;;;;;5117440;28;20019;-70
2020/12/20 10:24:57;;;;;;;22.23;14.13;;;8.90;99.90;;;;;;5117354;28;20038;-72
2020/12/20 10:27:23;;;;;;;22.00;14.43;;;9.00;99.90;;;;;;5099140;28;20133;-70
2020/12/20 10:29:48;;;;;;;21.07;14.17;;;8.90;99.90;;;;;;5116776;28;20028;-70
2020/12/20 10:32:14;;;;;;;22.40;14.73;;;9.00;99.90;;;;;;5098503;28;20027;-69
2020/12/20 10:34:40;;;;;;;20.80;13.93;;;8.90;99.90;;;;;;5117000;28;20020;-70
2020/12/20 10:37:06;;;;;;;18.33;13.80;;;8.90;99.90;;;;;;5098745;28;20031;-70
2020/12/20 10:39:32;;;;;;;19.10;14.10;;;8.90;99.90;;;;;;5117253;28;20069;-72
2020/12/20 10:41:57;;;;;;;19.00;14.23;;;9.00;99.90;;;;;;5116597;28;20257;-69
2020/12/20 10:44:24;;;;;;;20.80;14.43;;;9.00;99.90;;;;;;5098583;28;20364;-71
2020/12/20 10:46:50;;;;;;;24.25;13.88;;;9.10;99.90;;;;;;5098113;28;20020;-71
2020/12/20 10:49:17;;;;;;;20.95;14.02;;;9.10;99.90;;;;;;5116174;28;20023;-70
2020/12/20 10:51:43;;;;;;;17.88;14.10;;;9.10;99.90;;;;;;5116202;28;20020;-69
2020/12/20 10:54:09;;;;;;;18.80;13.45;;;9.10;99.90;;;;;;5098062;28;20034;-70
2020/12/20 10:56:35;;;;;;;22.17;14.80;;;9.10;99.90;;;;;;5116427;28;20023;-70
2020/12/20 10:59:00;;;;;;;23.60;13.07;;;9.00;99.90;;;;;;5116217;28;20046;-69
2020/12/20 11:01:26;;;;;;;19.90;13.60;;;9.10;99.90;;;;;;5097921;28;20024;-69
2020/12/20 11:03:51;;;;;;;22.43;13.97;;;9.10;99.90;;;;;;5098629;28;20069;-69
2020/12/20 11:06:22;;;;;;;18.53;14.13;;;9.20;99.90;;;;;;5116920;28;20069;-70
2020/12/20 11:08:49;;;;;;;18.17;13.13;;;9.30;99.90;;;;;;5099214;28;20118;-72
2020/12/20 11:11:15;;;;;;;17.55;12.88;;;9.40;99.90;;;;;;5116987;28;20506;-72
2020/12/20 11:13:42;;;;;;;;;;;9.60;99.90;;;;;;5098735;28;20028;-71
2020/12/20 11:16:18;;;;;;;18.02;12.32;;;9.70;99.90;;;;;;5116408;28;20352;-70
2020/12/20 11:18:46;;;;;;;16.00;12.35;;;9.90;99.90;;;;;;5098402;28;20033;-70
2020/12/20 11:21:13;;;;;;;15.73;12.32;;;10.00;99.90;;;;;;5115977;28;20387;-70
2020/12/20 11:23:40;;;;;;;18.40;12.73;;;9.90;99.90;;;;;;5116164;28;20026;-70
2020/12/20 11:26:14;;;;;;;20.63;12.68;;;9.90;99.90;;;;;;5098453;28;20050;-69
2020/12/20 11:28:41;;;;;;;18.20;13.25;;;9.80;99.90;;;;;;5097892;28;20027;-70
2020/12/20 11:31:09;;;;;;;19.27;13.25;;;9.70;99.90;;;;;;5115703;28;20083;-68
2020/12/20 11:33:36;;;;;;;17.02;13.02;;;9.50;99.90;;;;;;5116347;28;20102;-70
2020/12/20 11:36:01;;;;;;;17.60;12.80;;;9.50;99.90;;;;;;5118670;28;20061;-71
2020/12/20 11:38:27;;;;;;;20.80;14.63;;;9.50;99.90;;;;;;5098107;28;20027;-69
2020/12/20 11:40:53;;;;;;;24.73;19.80;;;9.50;99.90;;;;;;5116785;28;20266;-70
2020/12/20 11:43:18;;;;;;;24.40;16.80;;;9.40;99.90;;;;;;5117786;28;20081;-69
2020/12/20 11:45:45;;;;;;;19.60;14.93;;;9.40;99.90;;;;;;5099556;28;20023;-71
2020/12/20 11:48:12;;;;;;;25.48;13.93;;;9.40;99.90;;;;;;5116611;28;20024;-70
2020/12/20 11:50:38;;;;;;;18.88;13.00;;;9.60;99.90;;;;;;5097558;28;20432;-70
2020/12/20 11:53:04;;;;;;;28.03;15.00;;;9.60;99.90;;;;;;5097287;28;20058;-70
2020/12/20 11:55:29;;;;;;;17.23;12.60;;;9.70;99.90;;;;;;5116060;28;20472;-70
2020/12/20 11:57:55;;;;;;;20.70;11.70;;;9.80;99.90;;;;;;5115807;28;20429;-70
2020/12/20 12:00:21;;;;;;;34.30;14.77;;;9.90;99.90;;;;;;5115921;28;20016;-71
2020/12/20 12:02:46;;;;;;;25.23;13.40;;;10.00;99.90;;;;;;5115907;28;20025;-70
2020/12/20 12:05:12;;;;;;;18.87;12.37;;;10.20;99.90;;;;;;5115224;28;20019;-70
2020/12/20 12:07:37;;;;;;;18.97;11.83;;;10.10;99.90;;;;;;5114737;28;20027;-69
2020/12/20 12:10:03;;;;;;;18.53;12.73;;;10.00;99.90;;;;;;5115086;28;20031;-68
2020/12/20 12:12:29;;;;;;;18.92;12.18;;;9.90;99.90;;;;;;5115055;28;20055;-68
2020/12/20 12:14:54;;;;;;;17.40;12.40;;;9.90;99.90;;;;;;5114796;28;20031;-69
2020/12/20 12:17:20;;;;;;;16.17;11.37;;;9.90;99.90;;;;;;5114887;28;20125;-69
2020/12/20 12:19:46;;;;;;;17.43;11.87;;;10.00;99.90;;;;;;5115345;28;20028;-70
2020/12/20 12:22:11;;;;;;;17.03;11.57;;;10.00;99.90;;;;;;5096808;28;20019;-70
2020/12/20 12:24:37;;;;;;;16.53;11.53;;;10.00;99.90;;;;;;5114908;28;20027;-70
2020/12/20 12:27:03;;;;;;;17.47;11.27;;;10.10;99.90;;;;;;5096351;28;20027;-70
2020/12/20 12:29:29;;;;;;;;;;;10.10;99.90;;;;;;5115608;28;20024;-69
2020/12/20 12:31:55;;;;;;;16.10;11.15;;;10.00;99.90;;;;;;5117039;28;20261;-70
2020/12/20 12:34:20;;;;;;;16.67;11.55;;;10.10;99.90;;;;;;5096338;28;20024;-69
2020/12/20 12:36:46;;;;;;;14.53;9.60;;;10.00;99.90;;;;;;5114760;28;20031;-70
2020/12/20 12:39:11;;;;;;;17.00;11.40;;;10.10;99.90;;;;;;5114701;28;20108;-69